createdAt,value
2023-02-16T00:00:35.979Z,97882.69
2023-02-16T00:02:40.697Z,97886.94
2023-02-16T00:04:45.170Z,97895.34
2023-02-16T00:06:53.047Z,97894.56
2023-02-16T00:08:58.799Z,97896.38
2023-02-16T00:11:15.648Z,97890.31
2023-02-16T00:13:37.563Z,97895.75
2023-02-16T00:15:42.502Z,97891.56
2023-02-16T00:17:47.021Z,97891.56
2023-02-16T00:19:51.689Z,97889.34
2023-02-16T00:21:59.616Z,97880.69
2023-02-16T00:24:04.027Z,97881.69
2023-02-16T00:26:09.241Z,97879.28
2023-02-16T00:28:16.220Z,97876.47
2023-02-16T00:30:23.915Z,97878.88
2023-02-16T00:32:28.439Z,97866.38
2023-02-16T00:34:35.445Z,97868.78
2023-02-16T00:36:39.818Z,97866.59
2023-02-16T00:38:46.860Z,97861.94
2023-02-16T00:40:51.352Z,97859.75
2023-02-16T00:42:57.595Z,97865.56
2023-02-16T00:45:02.424Z,97865.97
2023-02-16T00:47:14.547Z,97864.94
2023-02-16T00:49:19.480Z,97857.91
2023-02-16T00:51:26.574Z,97862.13
2023-02-16T00:53:31.424Z,97860.31
2023-02-16T00:55:39.610Z,97860.31
2023-02-16T00:57:45.540Z,97855.91
2023-02-16T00:59:50.944Z,97852.28
2023-02-16T01:01:56.804Z,97852.06
2023-02-16T01:04:03.377Z,97855.31
2023-02-16T01:06:20.688Z,97856.13
2023-02-16T01:08:41.200Z,97851.06
2023-02-16T01:11:06.890Z,97849.28
2023-02-16T01:13:11.754Z,97848.28
2023-02-16T01:15:18.180Z,97852.28
2023-02-16T01:17:22.904Z,97853.88
2023-02-16T01:19:27.741Z,97859.13
2023-02-16T01:21:32.668Z,97855.50
2023-02-16T01:23:39.470Z,97850.28
2023-02-16T01:25:45.326Z,97855.50
2023-02-16T01:27:52.313Z,97854.09
2023-02-16T01:29:56.828Z,97850.25
2023-02-16T01:32:01.529Z,97848.84
2023-02-16T01:34:06.289Z,97842.25
2023-02-16T01:36:19.996Z,97843.03
2023-02-16T01:38:25.824Z,97846.44
2023-02-16T01:40:38.564Z,97845.44
2023-02-16T01:42:51.770Z,97838.59
2023-02-16T01:45:01.773Z,97839.63
2023-02-16T01:47:08.044Z,97834.41
2023-02-16T01:49:16.113Z,97839.63
2023-02-16T01:51:24.337Z,97836.19
2023-02-16T01:53:31.784Z,97830.97
2023-02-16T01:55:39.462Z,97826.34
2023-02-16T01:57:46.294Z,97828.97
2023-02-16T02:00:06.590Z,97825.53
2023-02-16T02:02:22.886Z,97825.16
2023-02-16T02:04:42.601Z,97820.56
2023-02-16T02:06:44.528Z,97820.75
2023-02-16T02:08:52.195Z,97815.53
2023-02-16T02:11:04.300Z,97811.53
2023-02-16T02:13:14.135Z,97821.34
2023-02-16T02:15:19.783Z,97819.78
2023-02-16T02:17:27.676Z,97818.16
2023-02-16T02:19:33.670Z,97818.94
2023-02-16T02:22:06.976Z,97811.13
2023-02-16T02:24:26.558Z,97810.69
2023-02-16T02:26:46.696Z,97806.88
2023-02-16T02:29:01.411Z,97802.28
2023-02-16T02:31:13.192Z,97805.47
2023-02-16T02:33:28.149Z,97801.84
2023-02-16T02:35:38.986Z,97801.84
2023-02-16T02:37:49.897Z,97803.44
2023-02-16T02:39:59.532Z,97815.28
2023-02-16T02:42:07.481Z,97810.28
2023-02-16T02:44:22.915Z,97810.47
2023-02-16T02:46:29.671Z,97811.69
2023-02-16T02:48:34.794Z,97808.28
2023-02-16T02:51:03.587Z,97805.88
2023-02-16T02:53:10.884Z,97803.69
2023-02-16T02:55:39.811Z,97810.91
2023-02-16T02:57:59.362Z,97810.53
2023-02-16T03:00:21.321Z,97817.78
2023-02-16T03:02:27.073Z,97806.13
2023-02-16T03:04:33.989Z,97810.75
2023-02-16T03:06:40.484Z,97812.56
2023-02-16T03:08:47.045Z,97812.56
2023-02-16T03:11:06.405Z,97811.78
2023-02-16T03:13:24.564Z,97811.78
2023-02-16T03:15:33.629Z,97806.13
2023-02-16T03:17:52.649Z,97807.34
2023-02-16T03:20:10.565Z,97818.81
2023-02-16T03:22:27.573Z,97817.63
2023-02-16T03:24:45.662Z,97816.00
2023-02-16T03:27:03.916Z,97813.59
2023-02-16T03:29:22.783Z,97812.59
2023-02-16T03:31:32.963Z,97807.16
2023-02-16T03:33:38.172Z,97812.78
2023-02-16T03:35:42.721Z,97806.34
2023-02-16T03:37:47.921Z,97799.31
2023-02-16T03:40:05.012Z,97805.56
2023-02-16T03:42:09.768Z,97803.94
2023-02-16T03:44:14.268Z,97807.56
2023-02-16T03:46:18.723Z,97814.00
2023-02-16T03:48:25.889Z,97820.22
2023-02-16T03:50:30.578Z,97819.41
2023-02-16T03:52:35.143Z,97814.19
2023-02-16T03:54:39.551Z,97819.41
2023-02-16T03:56:44.008Z,97820.03
2023-02-16T03:58:48.448Z,97824.03
2023-02-16T04:00:53.485Z,97834.28
2023-02-16T04:02:58.064Z,97842.13
2023-02-16T04:05:05.131Z,97830.84
2023-02-16T04:07:09.545Z,97832.88
2023-02-16T04:09:14.082Z,97835.69
2023-02-16T04:11:30.952Z,97831.25
2023-02-16T04:13:35.401Z,97834.09
2023-02-16T04:15:39.872Z,97839.09
2023-02-16T04:17:44.495Z,97839.91
2023-02-16T04:19:48.874Z,97836.28
2023-02-16T04:21:55.933Z,97829.47
2023-02-16T04:24:00.288Z,97832.28
2023-02-16T04:26:04.849Z,97836.91
2023-02-16T04:28:09.291Z,97839.34
2023-02-16T04:30:15.399Z,97845.13
2023-02-16T04:32:20.070Z,97843.16
2023-02-16T04:34:24.470Z,97838.53
2023-02-16T04:36:28.908Z,97836.75
2023-02-16T04:38:36.267Z,97846.78
2023-02-16T04:40:40.768Z,97844.56
2023-02-16T04:42:46.016Z,97834.34
2023-02-16T04:44:50.515Z,97835.53
2023-02-16T04:46:54.990Z,97820.06
2023-02-16T04:48:59.353Z,97822.28
2023-02-16T04:51:06.059Z,97822.69
2023-02-16T04:53:10.821Z,97823.09
2023-02-16T04:55:17.886Z,97819.66
2023-02-16T04:57:24.439Z,97811.44
2023-02-16T04:59:29.365Z,97795.38
2023-02-16T05:01:33.910Z,97802.22
2023-02-16T05:03:38.403Z,97810.25
2023-02-16T05:05:43.335Z,97810.84
2023-02-16T05:07:47.844Z,97818.25
2023-02-16T05:09:52.301Z,97816.06
2023-02-16T05:12:11.909Z,97814.03
2023-02-16T05:14:32.895Z,97818.69
2023-02-16T05:16:37.390Z,97816.66
2023-02-16T05:18:41.895Z,97825.09
2023-02-16T05:20:58.833Z,97820.06
2023-02-16T05:23:03.268Z,97818.25
2023-02-16T05:25:08.358Z,97829.09
2023-02-16T05:27:16.157Z,97830.88
2023-02-16T05:29:20.893Z,97829.44
2023-02-16T05:31:25.635Z,97832.81
2023-02-16T05:33:30.220Z,97831.44
2023-02-16T05:35:35.889Z,97837.84
2023-02-16T05:37:42.713Z,97839.63
2023-02-16T05:39:47.620Z,97844.03
2023-02-16T05:41:52.588Z,97850.06
2023-02-16T05:44:00.388Z,97844.06
2023-02-16T05:46:09.691Z,97847.06
2023-02-16T05:48:14.090Z,97849.69
2023-02-16T05:50:18.573Z,97848.09
2023-02-16T05:52:23.307Z,97855.91
2023-02-16T05:54:28.223Z,97858.09
2023-02-16T05:56:33.417Z,97857.50
2023-02-16T05:58:37.970Z,97854.25
2023-02-16T06:00:44.979Z,97862.28
2023-02-16T06:02:49.490Z,97864.69
2023-02-16T06:04:53.858Z,97856.66
2023-02-16T06:06:58.293Z,97859.91
2023-02-16T06:09:02.692Z,97866.53
2023-02-16T06:11:27.984Z,97852.09
2023-02-16T06:13:32.617Z,97858.88
2023-02-16T06:15:37.028Z,97858.25
2023-02-16T06:17:44.713Z,97854.66
2023-02-16T06:19:49.370Z,97857.25
2023-02-16T06:21:53.858Z,97870.09
2023-02-16T06:23:58.566Z,97874.91
2023-02-16T06:26:03.254Z,97870.94
2023-02-16T06:28:07.906Z,97866.34
2023-02-16T06:30:12.719Z,97872.94
2023-02-16T06:32:18.429Z,97871.34
2023-02-16T06:34:25.624Z,97870.34
2023-02-16T06:36:30.321Z,97867.13
2023-02-16T06:38:34.769Z,97882.13
2023-02-16T06:40:39.940Z,97889.53
2023-02-16T06:42:44.354Z,97879.50
2023-02-16T06:44:48.798Z,97882.69
2023-02-16T06:46:53.352Z,97885.69
2023-02-16T06:48:58.200Z,97894.50
2023-02-16T06:51:05.854Z,97899.31
2023-02-16T06:53:10.474Z,97897.69
2023-02-16T06:55:14.863Z,97892.91
2023-02-16T06:57:19.589Z,97890.50
2023-02-16T06:59:24.026Z,97896.34
2023-02-16T07:01:28.423Z,97889.31
2023-02-16T07:03:33.102Z,97895.75
2023-02-16T07:05:37.979Z,97895.97
2023-02-16T07:07:44.975Z,97903.59
2023-02-16T07:09:49.480Z,97899.00
2023-02-16T07:11:54.529Z,97905.44
2023-02-16T07:13:59.136Z,97909.44
2023-02-16T07:16:03.584Z,97910.66
2023-02-16T07:18:08.286Z,97913.25
2023-02-16T07:20:15.102Z,97911.84
2023-02-16T07:22:19.643Z,97916.06
2023-02-16T07:24:26.849Z,97909.63
2023-02-16T07:26:31.375Z,97910.66
2023-02-16T07:28:35.764Z,97916.06
2023-02-16T07:30:40.212Z,97913.63
2023-02-16T07:32:44.608Z,97916.06
2023-02-16T07:34:49.926Z,97916.47
2023-02-16T07:36:54.564Z,97915.66
2023-02-16T07:38:59.834Z,97919.28
2023-02-16T07:41:09.530Z,97922.06
2023-02-16T07:43:14.339Z,97911.00
2023-02-16T07:45:18.850Z,97913.03
2023-02-16T07:47:23.350Z,97910.22
2023-02-16T07:49:27.873Z,97909.03
2023-02-16T07:51:33.600Z,97921.28
2023-02-16T07:53:38.025Z,97921.91
2023-02-16T07:55:43.306Z,97918.28
2023-02-16T07:57:54.824Z,97932.56
2023-02-16T07:59:59.503Z,97929.34
2023-02-16T08:02:04.119Z,97927.16
2023-02-16T08:04:08.903Z,97920.16
2023-02-16T08:06:13.835Z,97923.97
2023-02-16T08:08:18.282Z,97926.38
2023-02-16T08:10:22.849Z,97915.31
2023-02-16T08:12:27.413Z,97929.19
2023-02-16T08:14:34.525Z,97928.19
2023-02-16T08:16:39.014Z,97929.97
2023-02-16T08:18:44.262Z,97923.34
2023-02-16T08:21:03.290Z,97933.41
2023-02-16T08:23:10.407Z,97937.00
2023-02-16T08:25:16.216Z,97934.44
2023-02-16T08:27:21.376Z,97933.25
2023-02-16T08:29:26.670Z,97932.66
2023-02-16T08:31:35.134Z,97933.06
2023-02-16T08:33:39.696Z,97938.69
2023-02-16T08:35:45.330Z,97935.88
2023-02-16T08:37:50.823Z,97937.31
2023-02-16T08:39:56.308Z,97935.09
2023-02-16T08:42:01.192Z,97930.69
2023-02-16T08:44:06.119Z,97932.09
2023-02-16T08:46:11.124Z,97935.69
2023-02-16T08:48:18.296Z,97938.28
2023-02-16T08:50:22.988Z,97943.50
2023-02-16T08:52:27.417Z,97938.28
2023-02-16T08:54:33.554Z,97936.28
2023-02-16T08:56:38.162Z,97933.28
2023-02-16T08:58:43.634Z,97940.09
2023-02-16T09:00:48.224Z,97943.91
2023-02-16T09:02:52.773Z,97935.88
2023-02-16T09:05:00.353Z,97935.47
2023-02-16T09:07:04.763Z,97937.28
2023-02-16T09:09:09.883Z,97935.91
2023-02-16T09:11:16.233Z,97947.16
2023-02-16T09:13:20.613Z,97933.50
2023-02-16T09:15:25.404Z,97938.94
2023-02-16T09:17:31.557Z,97942.34
2023-02-16T09:19:36.226Z,97940.97
2023-02-16T09:21:43.404Z,97931.94
2023-02-16T09:23:50.077Z,97934.31
2023-02-16T09:25:54.425Z,97937.97
2023-02-16T09:27:58.874Z,97929.28
2023-02-16T09:30:03.423Z,97930.88
2023-02-16T09:32:10.004Z,97932.66
2023-02-16T09:34:18.295Z,97941.09
2023-02-16T09:36:22.986Z,97947.66
2023-02-16T09:38:29.998Z,97936.72
2023-02-16T09:40:35.222Z,97935.44
2023-02-16T09:42:49.161Z,97931.34
2023-02-16T09:44:57.823Z,97926.84
2023-02-16T09:47:04.980Z,97934.19
2023-02-16T09:49:10.611Z,97931.13
2023-02-16T09:51:20.996Z,97934.44
2023-02-16T09:53:35.247Z,97933.47
2023-02-16T09:55:46.556Z,97937.06
2023-02-16T09:57:57.933Z,97930.69
2023-02-16T10:00:08.768Z,97932.59
2023-02-16T10:02:23.531Z,97927.44
2023-02-16T10:04:34.954Z,97933.31
2023-02-16T10:06:45.768Z,97926.03
2023-02-16T10:08:54.370Z,97937.31
2023-02-16T10:11:04.230Z,97931.19
2023-02-16T10:13:11.692Z,97934.50
2023-02-16T10:15:20.182Z,97929.97
2023-02-16T10:17:28.482Z,97927.16
2023-02-16T10:19:39.207Z,97926.28
2023-02-16T10:21:46.111Z,97922.31
2023-02-16T10:23:56.782Z,97922.78
2023-02-16T10:26:04.542Z,97918.22
2023-02-16T10:28:16.101Z,97918.75
2023-02-16T10:30:21.982Z,97915.09
2023-02-16T10:32:31.151Z,97915.28
2023-02-16T10:34:41.992Z,97915.28
2023-02-16T10:36:58.130Z,97917.09
2023-02-16T10:39:09.958Z,97903.88
2023-02-16T10:41:19.652Z,97902.81
2023-02-16T10:43:27.360Z,97903.31
2023-02-16T10:45:34.981Z,97906.13
2023-02-16T10:47:40.709Z,97901.50
2023-02-16T10:49:47.985Z,97896.09
2023-02-16T10:51:53.350Z,97899.13
2023-02-16T10:53:59.700Z,97899.00
2023-02-16T10:56:23.601Z,97902.03
2023-02-16T10:58:34.874Z,97898.81
2023-02-16T11:00:48.506Z,97899.28
2023-02-16T11:02:54.038Z,97895.00
2023-02-16T11:04:59.577Z,97887.34
2023-02-16T11:07:06.039Z,97885.13
2023-02-16T11:09:17.548Z,97881.91
2023-02-16T11:11:27.648Z,97875.19
2023-02-16T11:13:34.099Z,97880.03
2023-02-16T11:15:40.262Z,97880.81
2023-02-16T11:17:52.595Z,97882.44
2023-02-16T11:20:00.059Z,97871.88
2023-02-16T11:22:06.104Z,97866.91
2023-02-16T11:24:13.470Z,97866.16
2023-02-16T11:26:28.930Z,97863.53
2023-02-16T11:28:35.344Z,97859.94
2023-02-16T11:30:41.429Z,97854.94
2023-02-16T11:32:46.533Z,97855.47
2023-02-16T11:34:53.037Z,97848.09
2023-02-16T11:37:04.661Z,97853.13
2023-02-16T11:39:11.332Z,97844.66
2023-02-16T11:41:15.913Z,97841.19
2023-02-16T11:43:23.095Z,97840.09
2023-02-16T11:45:31.441Z,97835.59
2023-02-16T11:47:37.671Z,97834.31
2023-02-16T11:49:43.364Z,97835.94
2023-02-16T11:51:47.984Z,97833.63
2023-02-16T11:54:02.217Z,97832.69
2023-02-16T11:56:25.371Z,97825.38
2023-02-16T11:58:32.649Z,97830.22
2023-02-16T12:00:37.056Z,97825.56
2023-02-16T12:02:56.536Z,97829.91
2023-02-16T12:05:12.009Z,97817.81
2023-02-16T12:07:23.068Z,97819.75
2023-02-16T12:09:34.333Z,97819.53
2023-02-16T12:11:45.880Z,97816.41
2023-02-16T12:13:58.093Z,97810.63
2023-02-16T12:16:09.152Z,97801.66
2023-02-16T12:18:22.236Z,97798.22
2023-02-16T12:20:50.563Z,97801.69
2023-02-16T12:22:59.512Z,97796.66
2023-02-16T12:25:22.591Z,97786.34
2023-02-16T12:27:33.676Z,97787.97
2023-02-16T12:29:48.855Z,97775.25
2023-02-16T12:31:59.771Z,97772.34
2023-02-16T12:34:14.831Z,97776.03
2023-02-16T12:36:35.128Z,97771.28
2023-02-16T12:38:48.265Z,97766.72
2023-02-16T12:40:58.414Z,97765.66
2023-02-16T12:43:06.043Z,97761.91
2023-02-16T12:45:16.855Z,97764.53
2023-02-16T12:47:23.144Z,97759.97
2023-02-16T12:49:29.631Z,97756.53
2023-02-16T12:51:38.274Z,97755.94
2023-02-16T12:53:46.411Z,97755.38
2023-02-16T12:55:54.450Z,97748.69
2023-02-16T12:58:04.282Z,97743.88
2023-02-16T13:00:17.896Z,97737.22
2023-02-16T13:02:27.793Z,97736.38
2023-02-16T13:04:39.063Z,97732.88
2023-02-16T13:06:47.633Z,97734.44
2023-02-16T13:08:54.262Z,97730.16
2023-02-16T13:11:01.561Z,97733.31
2023-02-16T13:13:08.177Z,97730.59
2023-02-16T13:15:15.767Z,97729.50
2023-02-16T13:17:23.651Z,97726.00
2023-02-16T13:19:30.888Z,97725.16
2023-02-16T13:21:55.328Z,97723.00
2023-02-16T13:24:03.378Z,97719.78
2023-02-16T13:26:18.213Z,97713.13
2023-02-16T13:28:37.179Z,97723.19
2023-02-16T13:30:54.757Z,97718.91
2023-02-16T13:33:14.309Z,97721.81
2023-02-16T13:35:30.120Z,97720.19
2023-02-16T13:37:47.303Z,97718.84
2023-02-16T13:40:04.770Z,97715.63
2023-02-16T13:42:26.222Z,97726.50
2023-02-16T13:44:36.643Z,97717.97
2023-02-16T13:46:42.636Z,97715.53
2023-02-16T13:48:50.092Z,97714.47
2023-02-16T13:51:03.996Z,97714.16
2023-02-16T13:53:14.367Z,97710.44
2023-02-16T13:55:24.696Z,97707.78
2023-02-16T13:57:44.660Z,97706.19
2023-02-16T13:59:56.472Z,97712.59
2023-02-16T14:02:01.110Z,97711.00
2023-02-16T14:04:06.352Z,97707.03
2023-02-16T14:06:37.092Z,97704.16
2023-02-16T14:08:43.602Z,97701.03
2023-02-16T14:11:05.363Z,97702.94
2023-02-16T14:13:13.937Z,97692.09
2023-02-16T14:15:22.223Z,97694.28
2023-02-16T14:17:27.624Z,97699.94
2023-02-16T14:19:32.008Z,97698.66
2023-02-16T14:21:44.847Z,97694.47
2023-02-16T14:23:56.712Z,97699.03
2023-02-16T14:26:04.298Z,97700.44
2023-02-16T14:28:29.655Z,97690.88
2023-02-16T14:30:36.659Z,97688.00
2023-02-16T14:32:41.735Z,97688.28
2023-02-16T14:34:51.329Z,97682.16
2023-02-16T14:37:10.760Z,97686.41
2023-02-16T14:39:22.909Z,97678.44
2023-02-16T14:41:29.066Z,97680.81
2023-02-16T14:43:35.126Z,97682.69
2023-02-16T14:45:57.010Z,97678.97
2023-02-16T14:48:05.577Z,97683.75
2023-02-16T14:50:18.623Z,97682.97
2023-02-16T14:52:44.020Z,97676.84
2023-02-16T14:55:03.978Z,97679.00
2023-02-16T14:57:13.779Z,97677.69
2023-02-16T14:59:34.110Z,97680.34
2023-02-16T15:01:42.285Z,97671.06
2023-02-16T15:03:50.942Z,97668.69
2023-02-16T15:05:59.470Z,97668.94
2023-02-16T15:08:12.607Z,97664.19
2023-02-16T15:10:22.176Z,97670.59
2023-02-16T15:12:30.065Z,97673.50
2023-02-16T15:14:38.736Z,97663.44
2023-02-16T15:16:44.274Z,97662.16
2023-02-16T15:18:49.904Z,97665.34
2023-02-16T15:20:56.017Z,97660.06
2023-02-16T15:23:02.354Z,97661.41
2023-02-16T15:25:08.360Z,97661.47
2023-02-16T15:27:24.655Z,97659.63
2023-02-16T15:29:30.469Z,97658.03
2023-02-16T15:31:37.131Z,97651.66
2023-02-16T15:33:43.106Z,97663.38
2023-02-16T15:35:47.898Z,97663.44
2023-02-16T15:38:01.461Z,97675.09
2023-02-16T15:40:29.891Z,97670.13
2023-02-16T15:42:38.323Z,97669.09
2023-02-16T15:44:43.699Z,97664.88
2023-02-16T15:46:48.497Z,97674.69
2023-02-16T15:48:53.419Z,97662.78
2023-02-16T15:50:58.858Z,97666.53
2023-02-16T15:53:03.287Z,97665.75
2023-02-16T15:55:09.717Z,97671.31
2023-02-16T15:57:16.766Z,97674.00
2023-02-16T15:59:33.564Z,97673.22
2023-02-16T16:01:38.828Z,97667.94
2023-02-16T16:03:46.572Z,97671.38
2023-02-16T16:06:00.158Z,97669.53
2023-02-16T16:08:06.418Z,97670.34
2023-02-16T16:10:16.624Z,97668.22
2023-02-16T16:12:23.118Z,97667.16
2023-02-16T16:14:30.748Z,97674.00
2023-02-16T16:16:36.243Z,97669.53
2023-02-16T16:18:45.373Z,97670.31
2023-02-16T16:20:50.035Z,97671.91
2023-02-16T16:23:01.087Z,97671.09
2023-02-16T16:25:06.370Z,97679.59
2023-02-16T16:27:11.894Z,97672.44
2023-02-16T16:29:31.956Z,97671.38
2023-02-16T16:31:42.791Z,97675.59
2023-02-16T16:33:57.777Z,97672.16
2023-02-16T16:36:12.829Z,97669.78
2023-02-16T16:38:24.960Z,97676.66
2023-02-16T16:40:33.517Z,97678.50
2023-02-16T16:42:41.921Z,97679.56
2023-02-16T16:44:47.957Z,97685.63
2023-02-16T16:46:54.995Z,97687.47
2023-02-16T16:49:03.354Z,97686.66
2023-02-16T16:51:13.177Z,97693.00
2023-02-16T16:53:32.680Z,97690.31
2023-02-16T16:55:37.292Z,97692.41
2023-02-16T16:57:41.883Z,97694.81
2023-02-16T16:59:46.656Z,97699.28
2023-02-16T17:01:52.949Z,97687.88
2023-02-16T17:04:00.373Z,97693.94
2023-02-16T17:06:06.731Z,97698.16
2023-02-16T17:08:11.387Z,97702.59
2023-02-16T17:10:15.762Z,97701.75
2023-02-16T17:12:20.651Z,97697.25
2023-02-16T17:14:27.559Z,97700.94
2023-02-16T17:16:34.072Z,97705.38
2023-02-16T17:18:39.753Z,97700.06
2023-02-16T17:20:46.924Z,97699.00
2023-02-16T17:22:52.832Z,97699.22
2023-02-16T17:24:57.423Z,97699.19
2023-02-16T17:27:02.226Z,97693.06
2023-02-16T17:29:07.039Z,97705.97
2023-02-16T17:31:12.442Z,97698.56
2023-02-16T17:33:16.881Z,97702.75
2023-02-16T17:35:21.512Z,97711.19
2023-02-16T17:37:29.802Z,97717.00
2023-02-16T17:39:34.486Z,97714.31
2023-02-16T17:41:38.884Z,97709.50
2023-02-16T17:43:43.283Z,97705.56
2023-02-16T17:45:48.930Z,97706.84
2023-02-16T17:47:54.691Z,97713.44
2023-02-16T17:50:01.786Z,97716.31
2023-02-16T17:52:06.239Z,97708.13
2023-02-16T17:54:13.461Z,97714.44
2023-02-16T17:56:18.954Z,97717.31
2023-02-16T17:58:24.289Z,97712.56
2023-02-16T18:00:28.714Z,97708.03
2023-02-16T18:02:33.337Z,97705.09
2023-02-16T18:04:41.256Z,97710.88
2023-02-16T18:06:45.644Z,97708.97
2023-02-16T18:08:50.057Z,97710.53
2023-02-16T18:11:02.206Z,97704.16
2023-02-16T18:13:06.798Z,97716.00
2023-02-16T18:15:11.472Z,97715.69
2023-02-16T18:17:16.368Z,97708.28
2023-02-16T18:19:20.733Z,97707.72
2023-02-16T18:21:25.083Z,97699.53
2023-02-16T18:23:29.447Z,97702.41
2023-02-16T18:25:34.308Z,97705.31
2023-02-16T18:27:41.377Z,97704.72
2023-02-16T18:29:45.918Z,97703.38
2023-02-16T18:31:50.502Z,97714.19
2023-02-16T18:33:54.955Z,97705.69
2023-02-16T18:36:00.422Z,97703.31
2023-02-16T18:38:04.885Z,97709.88
2023-02-16T18:40:10.856Z,97710.13
2023-02-16T18:42:15.595Z,97711.66
2023-02-16T18:44:22.550Z,97718.25
2023-02-16T18:46:26.965Z,97720.06
2023-02-16T18:48:31.354Z,97724.25
2023-02-16T18:50:36.272Z,97721.84
2023-02-16T18:52:42.477Z,97734.25
2023-02-16T18:54:47.148Z,97728.44
2023-02-16T18:56:51.492Z,97735.78
2023-02-16T18:58:56.087Z,97740.25
2023-02-16T19:01:03.064Z,97748.41
2023-02-16T19:03:07.871Z,97743.38
2023-02-16T19:05:12.851Z,97730.69
2023-02-16T19:07:20.432Z,97725.91
2023-02-16T19:09:24.772Z,97716.41
2023-02-16T19:11:30.861Z,97741.41
2023-02-16T19:13:35.218Z,97751.41
2023-02-16T19:15:39.690Z,97750.84
2023-02-16T19:17:46.795Z,97739.75
2023-02-16T19:19:51.376Z,97735.53
2023-02-16T19:21:55.797Z,97732.34
2023-02-16T19:24:00.270Z,97736.50
2023-02-16T19:26:07.186Z,97727.47
2023-02-16T19:28:11.904Z,97722.69
2023-02-16T19:30:16.779Z,97723.97
2023-02-16T19:32:21.457Z,97721.34
2023-02-16T19:34:28.432Z,97724.22
2023-02-16T19:36:34.297Z,97717.38
2023-02-16T19:38:39.299Z,97721.84
2023-02-16T19:40:43.780Z,97719.44
2023-02-16T19:42:48.215Z,97723.94
2023-02-16T19:44:52.623Z,97734.72
2023-02-16T19:46:57.144Z,97728.88
2023-02-16T19:49:01.582Z,97725.94
2023-02-16T19:51:09.022Z,97728.25
2023-02-16T19:53:13.820Z,97734.25
2023-02-16T19:55:18.284Z,97733.13
2023-02-16T19:57:23.130Z,97726.78
2023-02-16T19:59:27.626Z,97728.84
2023-02-16T20:01:32.067Z,97724.06
2023-02-16T20:03:36.424Z,97726.94
2023-02-16T20:05:40.846Z,97720.63
2023-02-16T20:07:47.917Z,97719.81
2023-02-16T20:09:52.566Z,97715.59
2023-02-16T20:11:56.870Z,97723.19
2023-02-16T20:14:01.552Z,97715.66
2023-02-16T20:16:06.743Z,97716.63
2023-02-16T20:18:11.340Z,97716.81
2023-02-16T20:20:16.280Z,97714.34
2023-02-16T20:22:20.715Z,97721.59
2023-02-16T20:24:27.914Z,97715.69
2023-02-16T20:26:34.419Z,97711.91
2023-02-16T20:28:39.441Z,97711.63
2023-02-16T20:30:44.251Z,97713.91
2023-02-16T20:32:48.868Z,97709.91
2023-02-16T20:34:53.516Z,97701.91
2023-02-16T20:36:58.471Z,97707.66
2023-02-16T20:39:02.932Z,97715.00
2023-02-16T20:41:10.174Z,97702.09
2023-02-16T20:43:15.765Z,97707.91
2023-02-16T20:45:21.925Z,97708.44
2023-02-16T20:47:26.307Z,97713.25
2023-02-16T20:49:30.679Z,97711.50
2023-02-16T20:51:35.635Z,97715.84
2023-02-16T20:53:40.215Z,97709.88
2023-02-16T20:55:44.676Z,97718.88
2023-02-16T20:57:51.648Z,97708.66
2023-02-16T20:59:56.220Z,97704.53
2023-02-16T21:02:04.699Z,97719.06
2023-02-16T21:04:10.360Z,97719.59
2023-02-16T21:06:14.819Z,97712.25
2023-02-16T21:08:19.318Z,97706.97
2023-02-16T21:10:23.913Z,97707.81
2023-02-16T21:12:28.368Z,97709.63
2023-02-16T21:14:35.380Z,97707.22
2023-02-16T21:16:41.193Z,97700.13
2023-02-16T21:18:45.951Z,97701.97
2023-02-16T21:20:51.402Z,97700.94
2023-02-16T21:22:55.815Z,97706.19
2023-02-16T21:25:00.638Z,97699.91
2023-02-16T21:27:05.208Z,97693.03
2023-02-16T21:29:09.633Z,97693.81
2023-02-16T21:31:17.851Z,97699.09
2023-02-16T21:33:22.399Z,97698.78
2023-02-16T21:35:26.933Z,97695.84
2023-02-16T21:37:31.792Z,97694.16
2023-02-16T21:39:48.681Z,97694.63
2023-02-16T21:41:53.059Z,97692.22
2023-02-16T21:43:59.319Z,97688.81
2023-02-16T21:46:04.549Z,97682.53
2023-02-16T21:48:25.412Z,97687.31
2023-02-16T21:50:30.846Z,97676.28
2023-02-16T21:52:35.492Z,97679.22
2023-02-16T21:55:00.961Z,97673.97
2023-02-16T21:57:05.350Z,97671.34
2023-02-16T21:59:10.904Z,97676.34
2023-02-16T22:01:16.064Z,97671.91
2023-02-16T22:03:23.234Z,97669.56
2023-02-16T22:05:27.587Z,97673.00
2023-02-16T22:07:32.002Z,97682.50
2023-02-16T22:09:36.325Z,97671.72
2023-02-16T22:11:40.991Z,97677.56
2023-02-16T22:13:45.387Z,97677.31
2023-02-16T22:15:49.857Z,97673.88
2023-02-16T22:17:54.249Z,97667.81
2023-02-16T22:20:01.300Z,97671.25
2023-02-16T22:22:05.668Z,97673.63
2023-02-16T22:24:10.944Z,97676.84
2023-02-16T22:26:23.121Z,97673.97
2023-02-16T22:28:27.573Z,97677.38
2023-02-16T22:30:32.217Z,97673.72
2023-02-16T22:32:36.629Z,97677.72
2023-02-16T22:34:41.098Z,97680.34
2023-02-16T22:36:48.632Z,97686.41
2023-02-16T22:38:54.194Z,97680.09
2023-02-16T22:40:58.686Z,97687.75
2023-02-16T22:43:03.081Z,97683.28
2023-02-16T22:45:07.837Z,97681.44
2023-02-16T22:47:12.184Z,97676.97
2023-02-16T22:49:16.639Z,97675.13
2023-02-16T22:51:21.693Z,97676.97
2023-02-16T22:53:28.876Z,97682.25
2023-02-16T22:55:33.248Z,97675.38
2023-02-16T22:57:38.334Z,97676.41
2023-02-16T22:59:42.660Z,97669.56
2023-02-16T23:01:47.153Z,97669.56
2023-02-16T23:03:53.386Z,97672.75
2023-02-16T23:05:58.156Z,97680.41
2023-02-16T23:08:02.525Z,97668.84
2023-02-16T23:10:10.375Z,97675.47
2023-02-16T23:12:16.523Z,97674.16
2023-02-16T23:14:21.613Z,97677.91
2023-02-16T23:16:27.254Z,97681.91
2023-02-16T23:18:31.669Z,97678.78
2023-02-16T23:20:36.035Z,97683.31
2023-02-16T23:22:40.458Z,97686.53
2023-02-16T23:24:44.791Z,97679.94
2023-02-16T23:26:52.361Z,97679.50
2023-02-16T23:28:57.655Z,97679.78
2023-02-16T23:31:02.421Z,97677.47
2023-02-16T23:33:06.870Z,97670.91
2023-02-16T23:35:11.542Z,97671.22
2023-02-16T23:37:15.919Z,97669.94
2023-02-16T23:39:20.952Z,97675.75
2023-02-16T23:41:25.409Z,97672.38
2023-02-16T23:43:32.480Z,97669.25
2023-02-16T23:45:37.033Z,97665.34
2023-02-16T23:47:41.409Z,97671.97
2023-02-16T23:49:45.762Z,97668.84
2023-02-16T23:51:50.156Z,97672.81
2023-02-16T23:53:54.537Z,97668.88
2023-02-16T23:55:59.969Z,97673.66
2023-02-16T23:58:04.385Z,97664.47
